createdAt,value
2022-08-24T00:00:48.301Z,26.68
2022-08-24T00:03:13.328Z,26.64
2022-08-24T00:05:36.705Z,26.47
2022-08-24T00:08:00.093Z,26.44
2022-08-24T00:10:24.773Z,26.41
2022-08-24T00:12:48.271Z,26.37
2022-08-24T00:15:12.713Z,26.44
2022-08-24T00:17:35.739Z,26.34
2022-08-24T00:20:00.197Z,26.44
2022-08-24T00:22:23.492Z,26.48
2022-08-24T00:24:46.798Z,26.48
2022-08-24T00:27:12.134Z,26.53
2022-08-24T00:29:35.485Z,26.37
2022-08-24T00:31:58.754Z,26.27
2022-08-24T00:34:22.082Z,26.33
2022-08-24T00:36:45.406Z,26.28
2022-08-24T00:39:09.124Z,26.48
2022-08-24T00:41:32.443Z,26.55
2022-08-24T00:43:58.509Z,26.43
2022-08-24T00:46:23.194Z,26.45
2022-08-24T00:48:48.429Z,26.41
2022-08-24T00:51:15.260Z,26.51
2022-08-24T00:53:41.289Z,26.54
2022-08-24T00:56:06.951Z,26.42
2022-08-24T00:58:33.075Z,26.44
2022-08-24T01:00:58.586Z,26.53
2022-08-24T01:03:21.926Z,26.50
2022-08-24T01:05:45.992Z,26.56
2022-08-24T01:08:10.114Z,26.51
2022-08-24T01:10:35.400Z,26.51
2022-08-24T01:13:01.518Z,26.50
2022-08-24T01:15:25.038Z,26.43
2022-08-24T01:18:07.279Z,26.40
2022-08-24T01:20:30.555Z,26.49
2022-08-24T01:22:58.409Z,26.44
2022-08-24T01:25:23.645Z,26.68
2022-08-24T01:27:47.265Z,26.86
2022-08-24T01:30:14.318Z,26.95
2022-08-24T01:32:39.534Z,26.98
2022-08-24T01:35:02.966Z,26.86
2022-08-24T01:37:27.441Z,26.97
2022-08-24T01:39:51.453Z,27.03
2022-08-24T01:42:16.601Z,26.90
2022-08-24T01:44:40.531Z,26.86
2022-08-24T01:47:06.675Z,26.69
2022-08-24T01:49:32.709Z,26.55
2022-08-24T01:51:56.428Z,26.52
2022-08-24T01:54:19.949Z,26.53
2022-08-24T01:56:43.985Z,26.54
2022-08-24T01:59:08.875Z,26.50
2022-08-24T02:01:33.465Z,26.48
2022-08-24T02:03:57.911Z,26.41
2022-08-24T02:06:21.245Z,26.56
2022-08-24T02:08:44.597Z,26.33
2022-08-24T02:11:08.751Z,26.33
2022-08-24T02:13:32.019Z,26.49
2022-08-24T02:15:56.684Z,26.49
2022-08-24T02:18:20.127Z,26.54
2022-08-24T02:20:43.384Z,26.50
2022-08-24T02:23:07.201Z,26.36
2022-08-24T02:25:30.830Z,26.42
2022-08-24T02:27:54.120Z,26.53
2022-08-24T02:30:17.768Z,26.45
2022-08-24T02:32:42.574Z,26.52
2022-08-24T02:35:06.627Z,26.57
2022-08-24T02:37:29.974Z,26.47
2022-08-24T02:39:53.561Z,26.48
2022-08-24T02:42:18.858Z,26.49
2022-08-24T02:44:42.409Z,26.50
2022-08-24T02:47:06.083Z,26.49
2022-08-24T02:49:31.917Z,26.51
2022-08-24T02:51:55.608Z,26.41
2022-08-24T02:54:19.502Z,26.44
2022-08-24T02:56:44.836Z,26.41
2022-08-24T02:59:08.270Z,26.38
2022-08-24T03:01:31.784Z,26.41
2022-08-24T03:03:56.821Z,26.37
2022-08-24T03:06:21.950Z,26.44
2022-08-24T03:08:46.399Z,26.39
2022-08-24T03:11:12.559Z,26.25
2022-08-24T03:13:36.177Z,26.24
2022-08-24T03:15:59.832Z,26.07
2022-08-24T03:18:24.816Z,26.19
2022-08-24T03:20:49.133Z,26.16
2022-08-24T03:23:14.145Z,26.18
2022-08-24T03:25:37.518Z,26.17
2022-08-24T03:28:00.785Z,26.20
2022-08-24T03:30:24.593Z,26.18
2022-08-24T03:32:48.014Z,26.10
2022-08-24T03:35:12.118Z,26.18
2022-08-24T03:37:35.541Z,26.13
2022-08-24T03:40:01.845Z,26.17
2022-08-24T03:42:25.678Z,26.17
2022-08-24T03:44:49.332Z,26.13
2022-08-24T03:47:13.467Z,26.14
2022-08-24T03:49:36.755Z,26.05
2022-08-24T03:52:00.490Z,26.02
2022-08-24T03:54:23.797Z,26.01
2022-08-24T03:56:48.813Z,25.93
2022-08-24T03:59:12.041Z,26.02
2022-08-24T04:01:39.025Z,25.96
2022-08-24T04:04:04.772Z,25.97
2022-08-24T04:06:31.300Z,26.07
2022-08-24T04:08:54.908Z,26.09
2022-08-24T04:11:20.733Z,26.24
2022-08-24T04:13:45.565Z,26.40
2022-08-24T04:16:09.244Z,26.45
2022-08-24T04:18:32.765Z,26.44
2022-08-24T04:20:56.099Z,26.37
2022-08-24T04:23:19.768Z,26.41
2022-08-24T04:25:43.989Z,26.32
2022-08-24T04:28:07.168Z,26.25
2022-08-24T04:30:32.301Z,26.30
2022-08-24T04:33:05.409Z,26.36
2022-08-24T04:35:28.919Z,26.33
2022-08-24T04:37:52.231Z,26.37
2022-08-24T04:40:15.981Z,26.44
2022-08-24T04:42:44.109Z,26.32
2022-08-24T04:45:08.332Z,26.27
2022-08-24T04:47:32.954Z,26.29
2022-08-24T04:49:56.414Z,26.28
2022-08-24T04:52:19.737Z,26.29
2022-08-24T04:54:43.584Z,26.36
2022-08-24T04:57:14.742Z,26.32
2022-08-24T04:59:43.967Z,26.50
2022-08-24T05:02:07.293Z,26.66
2022-08-24T05:04:33.032Z,26.69
2022-08-24T05:06:56.410Z,26.73
2022-08-24T05:09:19.671Z,26.82
2022-08-24T05:11:43.045Z,26.75
2022-08-24T05:14:17.727Z,26.50
2022-08-24T05:16:45.805Z,26.49
2022-08-24T05:19:16.644Z,26.56
2022-08-24T05:21:44.328Z,26.43
2022-08-24T05:24:08.020Z,26.46
2022-08-24T05:26:31.938Z,26.38
2022-08-24T05:28:56.369Z,26.34
2022-08-24T05:31:22.408Z,26.37
2022-08-24T05:33:45.835Z,26.33
2022-08-24T05:36:16.758Z,26.38
2022-08-24T05:38:41.542Z,26.51
2022-08-24T05:41:07.429Z,26.59
2022-08-24T05:43:32.089Z,26.51
2022-08-24T05:45:55.652Z,26.43
2022-08-24T05:48:18.998Z,26.51
2022-08-24T05:51:01.243Z,26.61
2022-08-24T05:53:29.859Z,26.50
2022-08-24T05:55:57.161Z,26.36
2022-08-24T05:58:23.070Z,26.43
2022-08-24T06:00:54.974Z,26.49
2022-08-24T06:03:18.317Z,26.64
2022-08-24T06:05:47.642Z,26.83
2022-08-24T06:08:11.911Z,26.88
2022-08-24T06:10:40.889Z,26.96
2022-08-24T06:13:06.448Z,27.07
2022-08-24T06:15:30.186Z,27.09
2022-08-24T06:17:53.548Z,27.08
2022-08-24T06:20:17.142Z,27.12
2022-08-24T06:22:41.058Z,26.99
2022-08-24T06:25:22.494Z,26.90
2022-08-24T06:27:45.837Z,26.98
2022-08-24T06:30:12.329Z,27.10
2022-08-24T06:32:44.215Z,27.13
2022-08-24T06:35:17.308Z,26.97
2022-08-24T06:37:41.782Z,27.07
2022-08-24T06:40:05.663Z,27.07
2022-08-24T06:42:31.697Z,26.98
2022-08-24T06:44:56.219Z,26.96
2022-08-24T06:47:21.399Z,27.01
2022-08-24T06:49:50.607Z,27.09
2022-08-24T06:52:14.023Z,27.08
2022-08-24T06:54:38.063Z,27.01
2022-08-24T06:57:02.094Z,26.98
2022-08-24T06:59:27.082Z,26.94
2022-08-24T07:01:51.337Z,26.95
2022-08-24T07:04:16.047Z,26.94
2022-08-24T07:06:54.269Z,27.01
2022-08-24T07:09:17.618Z,27.09
2022-08-24T07:11:41.431Z,27.01
2022-08-24T07:14:04.770Z,26.97
2022-08-24T07:16:28.137Z,27.01
2022-08-24T07:18:56.761Z,27.06
2022-08-24T07:21:22.674Z,27.10
2022-08-24T07:23:47.861Z,27.13
2022-08-24T07:26:17.162Z,27.09
2022-08-24T07:28:45.387Z,27.10
2022-08-24T07:31:10.327Z,27.17
2022-08-24T07:33:39.269Z,27.29
2022-08-24T07:36:02.912Z,27.34
2022-08-24T07:38:28.165Z,27.37
2022-08-24T07:43:40.925Z,27.41
2022-08-24T07:46:06.794Z,27.44
2022-08-24T07:48:30.234Z,27.43
2022-08-24T07:50:54.427Z,27.46
2022-08-24T07:53:20.758Z,27.48
2022-08-24T07:55:55.322Z,27.37
2022-08-24T07:58:19.836Z,27.43
2022-08-24T08:00:47.731Z,27.42
2022-08-24T08:03:11.074Z,27.50
2022-08-24T08:05:38.871Z,27.55
2022-08-24T08:08:02.213Z,27.50
2022-08-24T08:10:30.762Z,27.45
2022-08-24T08:12:56.020Z,27.45
2022-08-24T08:15:19.567Z,27.51
2022-08-24T08:17:55.656Z,27.49
2022-08-24T08:20:19.802Z,27.57
2022-08-24T08:23:08.907Z,27.62
2022-08-24T08:25:35.692Z,27.68
2022-08-24T08:28:08.071Z,27.69
2022-08-24T08:30:42.582Z,27.71
2022-08-24T08:33:05.972Z,27.73
2022-08-24T08:35:29.766Z,27.76
2022-08-24T08:37:56.125Z,27.77
2022-08-24T08:40:25.429Z,27.78
2022-08-24T08:42:55.422Z,27.79
2022-08-24T08:45:28.245Z,27.76
2022-08-24T08:48:48.179Z,27.74
2022-08-24T08:51:33.755Z,27.72
2022-08-24T08:54:15.439Z,27.72
2022-08-24T08:56:43.697Z,27.71
2022-08-24T08:59:12.431Z,27.74
2022-08-24T09:01:49.460Z,27.76
2022-08-24T09:04:47.631Z,27.79
2022-08-24T09:07:21.139Z,27.80
2022-08-24T09:10:02.321Z,27.86
2022-08-24T09:12:32.677Z,27.77
2022-08-24T09:15:11.702Z,27.87
2022-08-24T09:17:53.947Z,27.87
2022-08-24T09:20:26.991Z,27.91
2022-08-24T09:22:50.323Z,27.91
2022-08-24T09:25:26.733Z,27.89
2022-08-24T09:28:15.693Z,27.93
2022-08-24T09:30:53.602Z,27.81
2022-08-24T09:33:21.918Z,27.95
2022-08-24T09:36:02.297Z,27.89
2022-08-24T09:38:30.287Z,27.94
2022-08-24T09:41:05.506Z,27.90
2022-08-24T09:44:03.267Z,27.91
2022-08-24T09:47:08.122Z,27.90
2022-08-24T09:50:00.253Z,27.88
2022-08-24T09:52:47.999Z,27.79
2022-08-24T09:55:34.506Z,27.88
2022-08-24T09:58:03.507Z,27.88
2022-08-24T10:00:30.092Z,27.87
2022-08-24T10:03:15.367Z,27.78
2022-08-24T10:05:55.928Z,27.86
2022-08-24T10:08:23.365Z,27.85
2022-08-24T10:10:50.192Z,27.87
2022-08-24T10:13:18.956Z,27.86
2022-08-24T10:15:46.736Z,27.85
2022-08-24T10:18:18.152Z,27.86
2022-08-24T10:20:53.635Z,27.86
2022-08-24T10:23:31.911Z,27.80
2022-08-24T10:25:57.054Z,27.90
2022-08-24T10:29:03.590Z,27.78
2022-08-24T10:31:28.697Z,27.87
2022-08-24T10:33:59.491Z,27.86
2022-08-24T10:37:00.200Z,27.57
2022-08-24T10:39:41.661Z,27.89
2022-08-24T10:42:52.184Z,27.90
2022-08-24T10:45:22.148Z,27.89
2022-08-24T10:48:05.748Z,27.80
2022-08-24T10:50:32.346Z,27.90
2022-08-24T10:53:25.474Z,27.91
2022-08-24T10:55:49.154Z,27.93
2022-08-24T10:58:40.820Z,27.96
2022-08-24T11:01:15.649Z,28.00
2022-08-24T11:03:57.391Z,28.00
2022-08-24T11:06:21.072Z,28.01
2022-08-24T11:08:53.058Z,28.02
2022-08-24T11:11:25.893Z,27.99
2022-08-24T11:13:52.251Z,28.01
2022-08-24T11:16:15.656Z,28.01
2022-08-24T11:18:50.333Z,28.03
2022-08-24T11:21:13.727Z,27.90
2022-08-24T11:23:37.650Z,28.00
2022-08-24T11:26:04.209Z,28.01
2022-08-24T11:28:31.218Z,28.03
2022-08-24T11:30:54.610Z,28.02
2022-08-24T11:33:32.118Z,27.99
2022-08-24T11:35:55.512Z,28.01
2022-08-24T11:38:20.010Z,28.03
2022-08-24T11:40:44.686Z,28.01
2022-08-24T11:43:13.562Z,28.01
2022-08-24T11:45:39.022Z,28.01
2022-08-24T11:48:07.042Z,28.00
2022-08-24T11:50:37.662Z,28.01
2022-08-24T11:53:19.264Z,28.01
2022-08-24T11:55:51.943Z,27.96
2022-08-24T11:58:27.224Z,27.95
2022-08-24T12:00:56.097Z,28.00
2022-08-24T12:03:35.279Z,28.00
2022-08-24T12:06:01.498Z,28.02
2022-08-24T12:08:27.295Z,28.04
2022-08-24T12:10:52.372Z,28.04
2022-08-24T12:13:26.247Z,28.03
2022-08-24T12:15:52.233Z,28.01
2022-08-24T12:18:23.585Z,28.01
2022-08-24T12:20:48.708Z,28.03
2022-08-24T12:23:19.090Z,28.05
2022-08-24T12:25:59.316Z,28.05
2022-08-24T12:28:25.777Z,28.07
2022-08-24T12:30:49.019Z,28.06
2022-08-24T12:33:13.439Z,28.06
2022-08-24T12:35:37.807Z,28.09
2022-08-24T12:38:03.184Z,27.96
2022-08-24T12:40:33.882Z,28.09
2022-08-24T12:43:00.098Z,28.01
2022-08-24T12:45:24.999Z,28.12
2022-08-24T12:47:50.223Z,28.12
2022-08-24T12:50:15.479Z,28.12
2022-08-24T12:53:20.373Z,28.14
2022-08-24T12:55:58.910Z,28.05
2022-08-24T12:58:54.129Z,28.03
2022-08-24T13:01:19.772Z,28.09
2022-08-24T13:03:50.188Z,28.10
2022-08-24T13:06:27.636Z,28.10
2022-08-24T13:08:51.766Z,28.10
2022-08-24T13:11:17.046Z,28.07
2022-08-24T13:13:43.283Z,28.08
2022-08-24T13:16:07.037Z,28.06
2022-08-24T13:18:50.761Z,28.07
2022-08-24T13:21:16.662Z,28.04
2022-08-24T13:23:39.902Z,28.03
2022-08-24T13:26:19.133Z,28.04
2022-08-24T13:28:44.790Z,28.03
2022-08-24T13:31:24.007Z,27.94
2022-08-24T13:33:50.082Z,27.93
2022-08-24T13:36:41.956Z,28.04
2022-08-24T13:39:10.129Z,28.05
2022-08-24T13:41:42.367Z,27.94
2022-08-24T13:44:08.823Z,28.06
2022-08-24T13:46:43.708Z,28.07
2022-08-24T13:49:20.992Z,28.08
2022-08-24T13:51:46.169Z,28.12
2022-08-24T13:54:20.052Z,28.08
2022-08-24T13:56:59.395Z,28.12
2022-08-24T13:59:35.079Z,28.13
2022-08-24T14:02:04.884Z,28.15
2022-08-24T14:04:43.895Z,28.15
2022-08-24T14:07:11.242Z,28.16
2022-08-24T14:09:40.111Z,28.03
2022-08-24T14:12:10.788Z,28.09
2022-08-24T14:14:55.635Z,28.17
2022-08-24T14:17:40.922Z,28.17
2022-08-24T14:20:08.155Z,28.16
2022-08-24T14:22:35.234Z,28.11
2022-08-24T14:25:13.675Z,28.12
2022-08-24T14:27:41.663Z,28.16
2022-08-24T14:30:39.482Z,28.15
2022-08-24T14:33:09.405Z,28.15
2022-08-24T14:35:39.403Z,28.13
2022-08-24T14:38:15.817Z,28.04
2022-08-24T14:40:42.078Z,28.06
2022-08-24T14:43:16.437Z,28.11
2022-08-24T14:45:46.292Z,28.16
2022-08-24T14:48:13.640Z,28.16
2022-08-24T14:50:40.421Z,28.16
2022-08-24T14:53:10.785Z,28.17
2022-08-24T14:55:39.065Z,28.17
2022-08-24T14:58:12.976Z,28.17
2022-08-24T15:00:50.847Z,28.13
2022-08-24T15:03:25.926Z,28.07
2022-08-24T15:06:25.865Z,28.16
2022-08-24T15:08:48.524Z,28.15
2022-08-24T15:11:13.036Z,28.22
2022-08-24T15:13:41.279Z,28.23
2022-08-24T15:16:06.234Z,28.23
2022-08-24T15:18:36.787Z,28.27
2022-08-24T15:21:07.671Z,28.29
2022-08-24T15:23:41.028Z,28.22
2022-08-24T15:26:06.062Z,28.08
2022-08-24T15:28:31.191Z,28.17
2022-08-24T15:30:56.170Z,28.16
2022-08-24T15:33:20.015Z,28.15
2022-08-24T15:35:44.605Z,28.20
2022-08-24T15:38:23.590Z,28.23
2022-08-24T15:40:47.264Z,28.21
2022-08-24T15:43:10.516Z,28.19
2022-08-24T15:45:33.885Z,28.22
2022-08-24T15:47:57.339Z,28.21
2022-08-24T15:50:22.562Z,28.22
2022-08-24T15:52:51.151Z,28.11
2022-08-24T15:55:38.367Z,28.20
2022-08-24T15:58:21.032Z,28.18
2022-08-24T16:01:01.787Z,28.20
2022-08-24T16:03:45.306Z,28.20
2022-08-24T16:06:20.861Z,28.19
2022-08-24T16:08:55.384Z,28.15
2022-08-24T16:11:23.195Z,28.15
2022-08-24T16:13:46.456Z,28.11
2022-08-24T16:16:13.049Z,28.10
2022-08-24T16:18:47.229Z,28.12
2022-08-24T16:21:14.599Z,28.10
2022-08-24T16:23:37.885Z,28.09
2022-08-24T16:26:19.656Z,28.12
2022-08-24T16:28:44.300Z,28.12
2022-08-24T16:31:08.222Z,28.11
2022-08-24T16:33:44.290Z,28.10
2022-08-24T16:36:09.177Z,28.09
2022-08-24T16:38:33.022Z,28.09
2022-08-24T16:40:58.515Z,28.07
2022-08-24T16:43:21.898Z,28.08
2022-08-24T16:45:47.038Z,28.09
2022-08-24T16:48:10.379Z,28.05
2022-08-24T16:50:33.883Z,28.05
2022-08-24T16:52:57.114Z,28.04
2022-08-24T16:55:20.358Z,28.04
2022-08-24T16:57:43.697Z,28.03
2022-08-24T17:00:08.561Z,28.03
2022-08-24T17:02:33.339Z,28.01
2022-08-24T17:04:56.593Z,28.04
2022-08-24T17:07:24.062Z,28.02
2022-08-24T17:09:47.514Z,28.03
2022-08-24T17:12:10.714Z,27.99
2022-08-24T17:14:33.997Z,27.98
2022-08-24T17:16:57.351Z,27.91
2022-08-24T17:19:22.054Z,27.93
2022-08-24T17:21:45.658Z,27.95
2022-08-24T17:24:09.010Z,27.96
2022-08-24T17:26:32.960Z,27.94
2022-08-24T17:28:56.569Z,27.86
2022-08-24T17:31:19.949Z,27.87
2022-08-24T17:33:43.419Z,27.86
2022-08-24T17:36:08.408Z,27.80
2022-08-24T17:38:41.656Z,27.65
2022-08-24T17:41:04.915Z,27.86
2022-08-24T17:43:28.915Z,27.80
2022-08-24T17:45:53.353Z,27.73
2022-08-24T17:48:18.733Z,27.73
2022-08-24T17:50:41.994Z,27.69
2022-08-24T17:53:06.716Z,27.72
2022-08-24T17:55:30.146Z,27.69
2022-08-24T17:57:53.441Z,27.68
2022-08-24T18:00:17.223Z,27.59
2022-08-24T18:02:41.284Z,27.65
2022-08-24T18:05:04.619Z,27.60
2022-08-24T18:07:49.588Z,27.60
2022-08-24T18:10:13.536Z,27.69
2022-08-24T18:12:36.811Z,27.79
2022-08-24T18:15:01.521Z,27.67
2022-08-24T18:17:28.228Z,27.55
2022-08-24T18:19:52.080Z,27.65
2022-08-24T18:22:15.861Z,27.56
2022-08-24T18:24:39.271Z,27.65
2022-08-24T18:27:10.094Z,27.59
2022-08-24T18:29:33.813Z,27.60
2022-08-24T18:31:57.773Z,27.62
2022-08-24T18:34:21.828Z,27.64
2022-08-24T18:36:45.147Z,27.61
2022-08-24T18:39:08.437Z,27.61
2022-08-24T18:41:33.855Z,27.68
2022-08-24T18:43:59.670Z,27.61
2022-08-24T18:46:23.022Z,27.57
2022-08-24T18:48:46.341Z,27.45
2022-08-24T18:51:09.802Z,27.62
2022-08-24T18:53:35.565Z,27.54
2022-08-24T18:56:03.134Z,27.56
2022-08-24T18:58:29.163Z,27.50
2022-08-24T19:00:54.020Z,27.55
2022-08-24T19:03:18.813Z,27.46
2022-08-24T19:05:42.194Z,27.39
2022-08-24T19:08:10.085Z,27.32
2022-08-24T19:10:36.743Z,27.34
2022-08-24T19:13:02.062Z,27.39
2022-08-24T19:15:31.942Z,27.22
2022-08-24T19:18:05.557Z,27.42
2022-08-24T19:20:29.004Z,27.54
2022-08-24T19:22:54.391Z,27.56
2022-08-24T19:25:20.381Z,27.47
2022-08-24T19:27:43.646Z,27.48
2022-08-24T19:30:08.100Z,27.59
2022-08-24T19:32:38.373Z,27.63
2022-08-24T19:35:03.024Z,27.61
2022-08-24T19:37:27.150Z,27.65
2022-08-24T19:39:51.060Z,27.64
2022-08-24T19:42:14.582Z,27.64
2022-08-24T19:44:55.130Z,27.60
2022-08-24T19:47:18.435Z,27.64
2022-08-24T19:49:42.039Z,27.63
2022-08-24T19:52:07.102Z,27.64
2022-08-24T19:54:32.471Z,27.63
2022-08-24T19:56:55.831Z,27.60
2022-08-24T19:59:20.362Z,27.31
2022-08-24T20:01:43.761Z,27.24
2022-08-24T20:04:07.382Z,27.30
2022-08-24T20:06:31.391Z,27.35
2022-08-24T20:08:56.061Z,27.29
2022-08-24T20:11:19.470Z,27.15
2022-08-24T20:13:42.994Z,27.13
2022-08-24T20:16:07.398Z,27.02
2022-08-24T20:18:34.846Z,26.98
2022-08-24T20:20:58.102Z,26.95
2022-08-24T20:23:21.462Z,27.02
2022-08-24T20:25:48.101Z,26.98
2022-08-24T20:30:54.687Z,26.92
2022-08-24T20:33:18.586Z,26.87
2022-08-24T20:35:41.971Z,26.80
2022-08-24T20:38:05.179Z,26.69
2022-08-24T20:40:28.569Z,26.70
2022-08-24T20:42:53.257Z,26.70
2022-08-24T20:45:16.623Z,26.74
2022-08-24T20:47:41.973Z,26.78
2022-08-24T20:50:06.223Z,26.64
2022-08-24T20:52:29.505Z,26.72
2022-08-24T20:54:52.803Z,26.75
2022-08-24T20:57:18.266Z,26.68
2022-08-24T20:59:42.896Z,26.67
2022-08-24T21:02:06.382Z,26.60
2022-08-24T21:04:30.065Z,26.67
2022-08-24T21:06:53.275Z,26.85
2022-08-24T21:09:16.646Z,26.98
2022-08-24T21:11:40.419Z,26.88
2022-08-24T21:14:05.651Z,26.69
2022-08-24T21:16:30.454Z,26.67
2022-08-24T21:18:53.849Z,26.69
2022-08-24T21:21:18.046Z,26.66
2022-08-24T21:23:41.410Z,26.48
2022-08-24T21:26:05.965Z,26.56
2022-08-24T21:28:29.301Z,26.50
2022-08-24T21:30:52.533Z,26.45
2022-08-24T21:33:34.969Z,26.56
2022-08-24T21:35:58.980Z,26.66
2022-08-24T21:38:22.790Z,26.59
2022-08-24T21:40:48.465Z,26.75
2022-08-24T21:43:14.975Z,27.01
2022-08-24T21:45:42.552Z,27.10
2022-08-24T21:48:08.145Z,27.14
2022-08-24T21:50:32.841Z,27.20
2022-08-24T21:52:56.111Z,27.14
2022-08-24T21:55:19.611Z,27.06
2022-08-24T21:57:42.885Z,26.99
2022-08-24T22:00:07.511Z,26.93
2022-08-24T22:02:30.961Z,27.16
2022-08-24T22:04:56.899Z,27.30
2022-08-24T22:07:21.607Z,27.25
2022-08-24T22:09:45.319Z,27.33
2022-08-24T22:12:09.055Z,27.10
2022-08-24T22:14:32.332Z,26.82
2022-08-24T22:16:55.585Z,26.70
2022-08-24T22:19:18.901Z,26.62
2022-08-24T22:21:47.563Z,26.56
2022-08-24T22:24:13.279Z,26.57
2022-08-24T22:26:36.922Z,26.66
2022-08-24T22:29:00.894Z,26.78
2022-08-24T22:31:25.011Z,26.72
2022-08-24T22:33:48.460Z,26.54
2022-08-24T22:36:12.042Z,26.28
2022-08-24T22:38:35.399Z,26.16
2022-08-24T22:41:00.007Z,26.20
2022-08-24T22:43:25.536Z,26.22
2022-08-24T22:45:50.905Z,26.15
2022-08-24T22:48:14.193Z,26.08
2022-08-24T22:50:37.469Z,26.02
2022-08-24T22:53:00.894Z,25.84
2022-08-24T22:55:24.173Z,25.83
2022-08-24T22:57:51.338Z,26.00
2022-08-24T23:00:17.045Z,26.19
2022-08-24T23:02:40.401Z,26.18
2022-08-24T23:05:03.782Z,26.16
2022-08-24T23:07:27.040Z,26.31
2022-08-24T23:09:50.406Z,26.36
2022-08-24T23:12:15.820Z,26.37
2022-08-24T23:14:41.686Z,26.33
2022-08-24T23:17:05.284Z,26.59
2022-08-24T23:19:46.397Z,26.64
2022-08-24T23:22:10.595Z,26.44
2022-08-24T23:24:34.147Z,26.15
2022-08-24T23:26:57.389Z,26.10
2022-08-24T23:29:20.719Z,26.13
2022-08-24T23:31:46.147Z,26.12
2022-08-24T23:34:09.451Z,26.10
2022-08-24T23:36:32.837Z,26.05
2022-08-24T23:38:56.936Z,25.94
2022-08-24T23:41:23.271Z,26.10
2022-08-24T23:43:46.598Z,26.13
2022-08-24T23:46:10.382Z,25.96
2022-08-24T23:48:37.142Z,26.02
2022-08-24T23:51:00.780Z,25.92
2022-08-24T23:53:24.502Z,25.89
2022-08-24T23:55:47.751Z,25.94
2022-08-24T23:58:11.068Z,25.95
